Time;durP1;ratioP1;P1;durP2;ratioP2;P2;SDS_P1;SDS_P2;PMS_P1;PMS_P2;Temp;Humidity;BMP_temperature;BMP_pressure;BME280_temperature;BME280_humidity;BME280_pressure;Samples;Min_cycle;Max_cycle;Signal;HPM_P1;HPM_P2
2023/06/14 00:00:20;;;;;;;3.97;3.40;;;;;;;;;;5064595;28;20178;-50
2023/06/14 00:02:45;;;;;;;4.60;3.55;;;;;;;;;;5068891;28;20217;-50
2023/06/14 00:05:15;;;;;;;4.15;3.05;;;;;;;;;;5062242;28;20566;-50
2023/06/14 00:07:44;;;;;;;5.00;3.17;;;;;;;;;;5059585;28;20443;-50
2023/06/14 00:10:11;;;;;;;3.45;3.15;;;;;;;;;;5056145;28;20193;-50
2023/06/14 00:12:39;;;;;;;3.33;3.03;;;;;;;;;;5065160;28;20170;-50
2023/06/14 00:15:05;;;;;;;4.85;3.22;;;;;;;;;;5062025;28;20191;-50
2023/06/14 00:17:31;;;;;;;3.67;2.97;;;;;;;;;;5064569;28;20183;-50
2023/06/14 00:19:58;;;;;;;3.05;2.75;;;;;;;;;;5065810;28;20191;-50
2023/06/14 00:22:24;;;;;;;3.95;3.13;;;;;;;;;;5068220;28;20237;-50
2023/06/14 00:24:50;;;;;;;4.65;3.10;;;;;;;;;;5063453;28;20267;-50
2023/06/14 00:27:16;;;;;;;4.15;3.40;;;;;;;;;;5058442;28;20183;-50
2023/06/14 00:29:42;;;;;;;6.18;3.22;;;;;;;;;;5059161;28;20258;-50
2023/06/14 00:32:08;;;;;;;4.38;3.10;;;;;;;;;;5067867;28;20186;-50
2023/06/14 00:34:34;;;;;;;4.05;3.10;;;;;;;;;;5066369;28;20501;-50
2023/06/14 00:37:00;;;;;;;3.53;3.15;;;;;;;;;;5068205;28;20253;-49
2023/06/14 00:39:26;;;;;;;3.33;3.03;;;;;;;;;;5056851;28;20183;-50
2023/06/14 00:41:52;;;;;;;8.27;3.10;;;;;;;;;;5070146;28;20214;-50
2023/06/14 00:44:18;;;;;;;4.47;3.30;;;;;;;;;;5064350;28;20183;-50
2023/06/14 00:46:45;;;;;;;4.03;3.00;;;;;;;;;;5068277;28;20240;-50
2023/06/14 00:49:12;;;;;;;3.85;2.75;;;;;;;;;;5063761;28;20596;-50
2023/06/14 00:51:39;;;;;;;3.38;2.90;;;;;;;;;;5063677;28;20257;-50
2023/06/14 00:54:05;;;;;;;3.97;2.83;;;;;;;;;;5062057;28;20199;-50
2023/06/14 00:56:31;;;;;;;3.15;2.85;;;;;;;;;;5063500;28;20599;-50
2023/06/14 00:58:58;;;;;;;3.78;3.05;;;;;;;;;;5063505;28;20175;-50
2023/06/14 01:01:24;;;;;;;3.33;2.95;;;;;;;;;;5061067;28;20451;-50
2023/06/14 01:03:53;;;;;;;6.22;3.00;;;;;;;;;;5054826;28;20506;-49
2023/06/14 01:06:26;;;;;;;5.20;3.10;;;;;;;;;;5055287;28;20182;-50
2023/06/14 01:09:04;;;;;;;3.28;2.97;;;;;;;;;;5061342;28;20233;-50
2023/06/14 01:11:33;;;;;;;4.03;3.05;;;;;;;;;;5064204;28;20186;-49
2023/06/14 01:14:00;;;;;;;4.32;3.13;;;;;;;;;;5065574;28;20182;-50
2023/06/14 01:16:26;;;;;;;3.72;2.90;;;;;;;;;;5058547;28;20186;-50
2023/06/14 01:18:52;;;;;;;3.75;3.20;;;;;;;;;;5063090;28;20186;-50
2023/06/14 01:21:22;;;;;;;3.15;2.85;;;;;;;;;;5061187;28;20451;-50
2023/06/14 01:23:52;;;;;;;4.57;3.13;;;;;;;;;;5063377;28;20273;-50
2023/06/14 01:26:18;;;;;;;4.97;3.33;;;;;;;;;;5066131;28;20174;-50
2023/06/14 01:28:48;;;;;;;3.42;3.10;;;;;;;;;;5072003;28;20190;-50
2023/06/14 01:31:16;;;;;;;3.80;3.03;;;;;;;;;;5057847;28;20190;-50
2023/06/14 01:33:42;;;;;;;5.10;2.80;;;;;;;;;;5059222;28;20190;-50
2023/06/14 01:36:09;;;;;;;3.72;3.00;;;;;;;;;;5063537;28;20209;-49
2023/06/14 01:38:35;;;;;;;3.88;2.85;;;;;;;;;;5065788;28;20185;-50
2023/06/14 01:41:02;;;;;;;3.42;2.92;;;;;;;;;;5058646;28;20554;-50
2023/06/14 01:43:28;;;;;;;4.13;3.00;;;;;;;;;;5057048;28;20531;-50
2023/06/14 01:45:55;;;;;;;4.03;2.80;;;;;;;;;;5070257;28;20438;-50
2023/06/14 01:48:22;;;;;;;3.65;2.80;;;;;;;;;;5057885;28;20178;-50
2023/06/14 01:50:49;;;;;;;4.18;2.80;;;;;;;;;;5062494;28;20178;-50
2023/06/14 01:53:15;;;;;;;3.28;2.88;;;;;;;;;;5066768;28;20183;-50
2023/06/14 01:55:43;;;;;;;3.90;2.90;;;;;;;;;;5059644;28;20191;-49
2023/06/14 01:58:10;;;;;;;3.25;2.83;;;;;;;;;;5073220;28;20193;-50
2023/06/14 02:00:36;;;;;;;4.15;2.88;;;;;;;;;;5061816;28;20562;-49
2023/06/14 02:03:04;;;;;;;3.10;2.80;;;;;;;;;;5054962;28;20237;-49
2023/06/14 02:05:30;;;;;;;3.25;2.83;;;;;;;;;;5069432;28;20210;-49
2023/06/14 02:07:56;;;;;;;3.10;2.60;;;;;;;;;;5062927;28;20179;-49
2023/06/14 02:10:22;;;;;;;4.15;3.05;;;;;;;;;;5070828;28;20186;-49
2023/06/14 02:12:47;;;;;;;2.70;2.50;;;;;;;;;;5070025;28;20196;-49
2023/06/14 02:15:16;;;;;;;4.00;2.47;;;;;;;;;;5062504;28;20194;-49
2023/06/14 02:17:42;;;;;;;3.05;2.75;;;;;;;;;;5055738;28;20221;-49
2023/06/14 02:20:09;;;;;;;2.97;2.65;;;;;;;;;;5058832;28;20182;-49
2023/06/14 02:22:35;;;;;;;3.17;2.63;;;;;;;;;;5059095;28;20934;-50
2023/06/14 02:25:01;;;;;;;4.75;2.55;;;;;;;;;;5074169;28;20187;-49
2023/06/14 02:27:27;;;;;;;6.25;2.30;;;;;;;;;;5060949;28;20290;-49
2023/06/14 02:29:53;;;;;;;2.80;2.60;;;;;;;;;;5057031;28;20266;-49
2023/06/14 02:32:19;;;;;;;2.90;2.60;;;;;;;;;;5065797;28;20186;-49
2023/06/14 02:34:49;;;;;;;4.65;2.95;;;;;;;;;;5056772;28;20179;-49
2023/06/14 02:37:15;;;;;;;3.13;2.83;;;;;;;;;;5065662;28;20573;-49
2023/06/14 02:39:41;;;;;;;2.45;2.25;;;;;;;;;;5056067;28;20218;-49
2023/06/14 02:42:07;;;;;;;4.13;2.80;;;;;;;;;;5065987;28;20267;-49
2023/06/14 02:44:33;;;;;;;5.10;2.60;;;;;;;;;;5060935;28;20304;-49
2023/06/14 02:47:00;;;;;;;3.88;2.50;;;;;;;;;;5053779;28;20187;-49
2023/06/14 02:49:26;;;;;;;2.90;2.60;;;;;;;;;;5045253;28;20178;-49
2023/06/14 02:51:52;;;;;;;3.38;2.47;;;;;;;;;;5061776;28;20254;-49
2023/06/14 02:54:18;;;;;;;4.05;2.58;;;;;;;;;;5063259;28;20566;-49
2023/06/14 02:56:44;;;;;;;5.57;2.45;;;;;;;;;;5063546;28;20216;-49
2023/06/14 02:59:10;;;;;;;3.25;2.47;;;;;;;;;;5065290;28;20577;-50
2023/06/14 03:01:40;;;;;;;5.90;2.95;;;;;;;;;;5057637;28;20178;-49
2023/06/14 03:04:06;;;;;;;2.70;2.50;;;;;;;;;;5055826;28;20590;-49
2023/06/14 03:06:33;;;;;;;3.08;2.72;;;;;;;;;;5069374;28;20545;-49
2023/06/14 03:08:59;;;;;;;5.30;2.92;;;;;;;;;;5051564;28;20614;-49
2023/06/14 03:11:26;;;;;;;4.00;2.78;;;;;;;;;;5063243;28;20198;-50
2023/06/14 03:13:52;;;;;;;3.42;3.08;;;;;;;;;;5058194;28;20233;-49
2023/06/14 03:16:21;;;;;;;3.67;3.08;;;;;;;;;;5062462;28;20232;-49
2023/06/14 03:18:47;;;;;;;3.35;2.67;;;;;;;;;;5052887;28;20178;-49
2023/06/14 03:21:13;;;;;;;3.30;3.00;;;;;;;;;;5063153;28;20194;-49
2023/06/14 03:23:38;;;;;;;2.47;2.28;;;;;;;;;;5071893;28;20221;-49
2023/06/14 03:26:05;;;;;;;3.22;2.92;;;;;;;;;;5049392;28;20532;-49
2023/06/14 03:28:31;;;;;;;2.88;2.63;;;;;;;;;;5065295;28;20166;-49
2023/06/14 03:30:57;;;;;;;3.03;2.42;;;;;;;;;;5055354;28;20183;-49
2023/06/14 03:33:22;;;;;;;3.30;2.50;;;;;;;;;;5057471;28;20604;-49
2023/06/14 03:35:49;;;;;;;2.60;2.40;;;;;;;;;;5059846;28;20175;-49
2023/06/14 03:38:15;;;;;;;3.22;2.92;;;;;;;;;;5058400;28;20179;-50
2023/06/14 03:40:41;;;;;;;5.13;2.65;;;;;;;;;;5052442;28;20653;-49
2023/06/14 03:43:07;;;;;;;3.50;2.50;;;;;;;;;;5054461;28;20746;-49
2023/06/14 03:45:33;;;;;;;3.25;2.72;;;;;;;;;;5059447;28;20231;-49
2023/06/14 03:48:00;;;;;;;2.95;2.60;;;;;;;;;;5060946;28;20186;-49
2023/06/14 03:50:27;;;;;;;4.22;2.72;;;;;;;;;;5068416;28;20171;-49
2023/06/14 03:52:53;;;;;;;4.60;2.63;;;;;;;;;;5069510;28;20236;-50
2023/06/14 03:55:19;;;;;;;4.10;2.67;;;;;;;;;;5071767;28;20190;-49
2023/06/14 03:57:45;;;;;;;3.10;2.50;;;;;;;;;;5071368;28;20449;-49
2023/06/14 04:00:12;;;;;;;3.58;2.30;;;;;;;;;;5072887;28;20208;-49
2023/06/14 04:02:38;;;;;;;5.07;3.08;;;;;;;;;;5065257;28;20197;-49
2023/06/14 04:05:08;;;;;;;2.95;2.40;;;;;;;;;;5061931;28;20262;-48
2023/06/14 04:07:39;;;;;;;2.50;2.30;;;;;;;;;;5056151;28;20175;-49
2023/06/14 04:10:05;;;;;;;2.60;2.22;;;;;;;;;;5068157;28;20170;-49
2023/06/14 04:12:31;;;;;;;3.75;2.47;;;;;;;;;;5070480;28;20594;-50
2023/06/14 04:14:57;;;;;;;2.85;2.42;;;;;;;;;;5064323;28;20187;-48
2023/06/14 04:17:23;;;;;;;5.07;2.17;;;;;;;;;;5064915;28;20194;-49
2023/06/14 04:19:49;;;;;;;3.40;2.10;;;;;;;;;;5065402;28;20194;-50
2023/06/14 04:22:15;;;;;;;2.92;2.38;;;;;;;;;;5065163;28;20211;-49
2023/06/14 04:24:42;;;;;;;3.22;2.53;;;;;;;;;;5056366;28;20203;-49
2023/06/14 04:27:08;;;;;;;8.00;2.40;;;;;;;;;;5056241;28;20167;-49
2023/06/14 04:29:34;;;;;;;5.93;2.58;;;;;;;;;;5054658;28;20178;-49
2023/06/14 04:32:01;;;;;;;6.18;3.10;;;;;;;;;;5058533;28;20187;-50
2023/06/14 04:34:29;;;;;;;5.15;2.25;;;;;;;;;;5065947;28;20176;-49
2023/06/14 04:36:56;;;;;;;3.45;2.35;;;;;;;;;;5060698;28;20183;-49
2023/06/14 04:39:22;;;;;;;4.78;2.67;;;;;;;;;;5056191;28;20190;-49
2023/06/14 04:41:52;;;;;;;4.30;2.20;;;;;;;;;;5068092;28;20198;-49
2023/06/14 04:44:19;;;;;;;2.95;2.50;;;;;;;;;;5058003;28;20195;-49
2023/06/14 04:46:48;;;;;;;2.95;2.30;;;;;;;;;;5063368;28;20178;-49
2023/06/14 04:49:15;;;;;;;2.40;2.20;;;;;;;;;;5057812;28;20249;-49
2023/06/14 04:51:45;;;;;;;3.25;2.88;;;;;;;;;;5066776;28;20224;-49
2023/06/14 04:54:13;;;;;;;4.15;2.35;;;;;;;;;;5064563;28;20213;-49
2023/06/14 04:56:39;;;;;;;5.00;2.65;;;;;;;;;;5054879;28;20174;-49
2023/06/14 04:59:05;;;;;;;5.93;2.78;;;;;;;;;;5055324;28;20262;-49
2023/06/14 05:01:32;;;;;;;2.75;2.50;;;;;;;;;;5064241;28;20264;-49
2023/06/14 05:03:58;;;;;;;5.50;3.13;;;;;;;;;;5060391;28;20529;-50
2023/06/14 05:06:24;;;;;;;3.10;2.40;;;;;;;;;;5065478;28;20182;-49
2023/06/14 05:08:50;;;;;;;2.83;2.22;;;;;;;;;;5055228;28;20190;-49
2023/06/14 05:11:19;;;;;;;3.63;2.60;;;;;;;;;;5064747;28;20206;-49
2023/06/14 05:13:46;;;;;;;3.40;2.75;;;;;;;;;;5076246;28;20202;-49
2023/06/14 05:16:12;;;;;;;3.60;2.47;;;;;;;;;;5061484;28;20269;-48
2023/06/14 05:18:40;;;;;;;2.92;2.30;;;;;;;;;;5066669;28;20202;-49
2023/06/14 05:21:05;;;;;;;2.67;2.10;;;;;;;;;;5059347;28;20489;-49
2023/06/14 05:23:31;;;;;;;3.13;2.78;;;;;;;;;;5067095;28;20217;-49
2023/06/14 05:25:57;;;;;;;4.18;2.65;;;;;;;;;;5066514;28;20194;-49
2023/06/14 05:28:23;;;;;;;4.03;3.00;;;;;;;;;;5066678;28;20189;-49
2023/06/14 05:30:50;;;;;;;3.10;2.60;;;;;;;;;;5066986;28;20176;-49
2023/06/14 05:33:16;;;;;;;3.47;2.67;;;;;;;;;;5063406;28;20542;-49
2023/06/14 05:35:42;;;;;;;2.95;2.63;;;;;;;;;;5057184;28;20196;-49
2023/06/14 05:38:08;;;;;;;3.42;2.72;;;;;;;;;;5055336;28;20265;-49
2023/06/14 05:40:34;;;;;;;4.05;2.50;;;;;;;;;;5060105;28;20454;-49
2023/06/14 05:43:00;;;;;;;4.22;2.42;;;;;;;;;;5074153;28;20210;-49
2023/06/14 05:45:26;;;;;;;4.22;2.55;;;;;;;;;;5058627;28;20197;-49
2023/06/14 05:47:54;;;;;;;2.92;2.58;;;;;;;;;;5059965;28;20284;-49
2023/06/14 05:50:20;;;;;;;3.88;2.80;;;;;;;;;;5066827;28;20183;-49
2023/06/14 05:52:46;;;;;;;2.30;2.10;;;;;;;;;;5058981;28;20578;-49
2023/06/14 05:55:12;;;;;;;2.80;2.50;;;;;;;;;;5054471;28;20191;-49
2023/06/14 05:57:38;;;;;;;3.05;2.38;;;;;;;;;;5062118;28;20183;-49
2023/06/14 06:00:10;;;;;;;2.35;2.15;;;;;;;;;;5056429;28;20190;-49
2023/06/14 06:02:36;;;;;;;3.53;2.53;;;;;;;;;;5062943;28;20289;-49
2023/06/14 06:05:02;;;;;;;2.80;2.22;;;;;;;;;;5061680;28;20213;-50
2023/06/14 06:07:28;;;;;;;3.90;2.58;;;;;;;;;;5064437;28;20480;-50
2023/06/14 06:09:54;;;;;;;2.40;2.20;;;;;;;;;;5058407;28;20565;-50
2023/06/14 06:12:20;;;;;;;2.33;2.13;;;;;;;;;;5073414;28;20182;-50
2023/06/14 06:14:46;;;;;;;2.85;2.42;;;;;;;;;;5054683;28;20440;-50
2023/06/14 06:17:12;;;;;;;2.50;2.30;;;;;;;;;;5062906;28;20233;-49
2023/06/14 06:19:38;;;;;;;3.10;2.40;;;;;;;;;;5064520;28;20187;-49
2023/06/14 06:22:06;;;;;;;3.17;2.50;;;;;;;;;;5064021;28;20489;-49
2023/06/14 06:24:32;;;;;;;2.58;2.38;;;;;;;;;;5061506;28;20191;-49
2023/06/14 06:26:58;;;;;;;2.85;2.42;;;;;;;;;;5053299;28;20183;-50
2023/06/14 06:29:24;;;;;;;4.18;2.30;;;;;;;;;;5052756;28;20186;-50
2023/06/14 06:31:49;;;;;;;2.20;2.00;;;;;;;;;;5067364;28;20182;-50
2023/06/14 06:34:15;;;;;;;3.13;2.20;;;;;;;;;;5060503;28;20196;-50
2023/06/14 06:36:42;;;;;;;2.55;2.35;;;;;;;;;;5062406;28;20190;-50
2023/06/14 06:39:10;;;;;;;2.38;2.17;;;;;;;;;;5064027;28;20179;-49
2023/06/14 06:41:37;;;;;;;2.78;2.55;;;;;;;;;;5058110;28;20180;-50
2023/06/14 06:44:03;;;;;;;3.33;2.72;;;;;;;;;;5060602;28;20215;-49
2023/06/14 06:46:29;;;;;;;2.85;2.30;;;;;;;;;;5064359;28;20213;-49
2023/06/14 06:48:55;;;;;;;3.30;2.50;;;;;;;;;;5058743;28;20175;-50
2023/06/14 06:51:21;;;;;;;2.90;2.30;;;;;;;;;;5061602;28;20474;-50
2023/06/14 06:53:52;;;;;;;5.93;2.38;;;;;;;;;;5061927;28;20182;-50
2023/06/14 06:56:19;;;;;;;2.75;2.20;;;;;;;;;;5066108;28;20182;-50
2023/06/14 06:58:45;;;;;;;4.43;2.42;;;;;;;;;;5053997;28;20198;-50
2023/06/14 07:01:11;;;;;;;2.47;2.15;;;;;;;;;;5054111;28;20190;-49
2023/06/14 07:03:37;;;;;;;4.13;2.35;;;;;;;;;;5058874;28;20578;-49
2023/06/14 07:06:03;;;;;;;2.53;2.28;;;;;;;;;;5063304;28;20223;-50
2023/06/14 07:08:29;;;;;;;2.72;2.53;;;;;;;;;;5065455;28;20182;-50
2023/06/14 07:10:55;;;;;;;2.17;1.98;;;;;;;;;;5060770;28;20250;-49
2023/06/14 07:13:21;;;;;;;5.15;2.47;;;;;;;;;;5061633;28;20287;-49
2023/06/14 07:15:47;;;;;;;3.50;2.45;;;;;;;;;;5058043;28;20187;-49
2023/06/14 07:18:13;;;;;;;4.05;2.70;;;;;;;;;;5062655;28;21741;-49
2023/06/14 07:20:40;;;;;;;3.67;2.42;;;;;;;;;;5066862;28;20265;-50
2023/06/14 07:23:06;;;;;;;3.75;2.13;;;;;;;;;;5060890;28;20225;-49
2023/06/14 07:25:32;;;;;;;2.30;2.10;;;;;;;;;;5061097;28;20575;-49
2023/06/14 07:27:58;;;;;;;2.25;2.05;;;;;;;;;;5062062;28;20558;-49
2023/06/14 07:30:25;;;;;;;2.33;2.15;;;;;;;;;;5062834;28;20231;-49
2023/06/14 07:32:52;;;;;;;2.88;2.50;;;;;;;;;;5062956;28;20185;-49
2023/06/14 07:35:18;;;;;;;3.25;2.22;;;;;;;;;;5069465;28;20193;-49
2023/06/14 07:37:45;;;;;;;3.95;2.58;;;;;;;;;;5052654;28;20183;-49
2023/06/14 07:40:11;;;;;;;2.30;2.10;;;;;;;;;;5056622;28;20191;-50
2023/06/14 07:42:37;;;;;;;4.28;1.85;;;;;;;;;;5053586;28;20208;-50
2023/06/14 07:45:04;;;;;;;2.67;2.30;;;;;;;;;;5061884;28;20206;-49
2023/06/14 07:47:30;;;;;;;2.38;2.17;;;;;;;;;;5057813;28;20224;-49
2023/06/14 07:49:56;;;;;;;4.13;2.83;;;;;;;;;;5055809;28;20183;-50
2023/06/14 07:52:22;;;;;;;2.50;2.30;;;;;;;;;;5054206;28;20210;-50
2023/06/14 07:54:48;;;;;;;2.38;2.08;;;;;;;;;;5057893;28;20474;-49
2023/06/14 07:57:14;;;;;;;3.78;2.20;;;;;;;;;;5056491;28;20183;-50
2023/06/14 07:59:40;;;;;;;2.85;2.60;;;;;;;;;;5063038;28;20185;-50
2023/06/14 08:02:06;;;;;;;2.60;2.40;;;;;;;;;;5062571;28;20285;-49
2023/06/14 08:04:32;;;;;;;3.85;2.17;;;;;;;;;;5059014;28;20298;-50
2023/06/14 08:06:58;;;;;;;2.30;2.08;;;;;;;;;;5061692;28;20229;-49
2023/06/14 08:09:25;;;;;;;3.03;2.35;;;;;;;;;;5061061;28;20187;-49
2023/06/14 08:11:51;;;;;;;4.20;2.33;;;;;;;;;;5061844;28;20185;-50
2023/06/14 08:14:17;;;;;;;2.83;2.53;;;;;;;;;;5064731;28;20619;-49
2023/06/14 08:16:43;;;;;;;4.00;2.33;;;;;;;;;;5064702;28;20661;-50
2023/06/14 08:19:08;;;;;;;2.40;2.08;;;;;;;;;;5056148;28;20482;-49
2023/06/14 08:21:36;;;;;;;4.43;2.03;;;;;;;;;;5062475;28;20458;-50
2023/06/14 08:24:02;;;;;;;2.53;2.30;;;;;;;;;;5054516;28;20211;-49
2023/06/14 08:26:28;;;;;;;2.95;2.22;;;;;;;;;;5066552;28;20209;-49
2023/06/14 08:28:54;;;;;;;4.18;2.20;;;;;;;;;;5058976;28;20215;-49
2023/06/14 08:31:21;;;;;;;3.53;2.20;;;;;;;;;;5060732;28;20182;-50
2023/06/14 08:33:46;;;;;;;2.15;1.95;;;;;;;;;;5064556;28;20187;-49
2023/06/14 08:36:13;;;;;;;2.78;2.20;;;;;;;;;;5067961;28;20232;-49
2023/06/14 08:38:39;;;;;;;2.58;2.38;;;;;;;;;;5062333;28;20195;-50
2023/06/14 08:41:08;;;;;;;2.97;2.00;;;;;;;;;;5073350;28;20187;-49
2023/06/14 08:43:34;;;;;;;2.83;2.25;;;;;;;;;;5055389;28;20631;-50
2023/06/14 08:46:04;;;;;;;2.60;2.17;;;;;;;;;;5063111;28;20207;-49
2023/06/14 08:48:32;;;;;;;5.18;2.30;;;;;;;;;;5065673;28;20183;-49
2023/06/14 08:51:03;;;;;;;2.83;2.42;;;;;;;;;;5067055;28;20175;-49
2023/06/14 08:53:31;;;;;;;2.40;2.20;;;;;;;;;;5061130;28;20175;-50
2023/06/14 08:56:00;;;;;;;3.45;2.10;;;;;;;;;;5066482;28;20193;-50
2023/06/14 08:58:29;;;;;;;5.20;2.30;;;;;;;;;;5063717;28;20179;-49
2023/06/14 09:00:55;;;;;;;4.45;2.17;;;;;;;;;;5060409;28;20187;-49
2023/06/14 09:03:23;;;;;;;2.97;2.10;;;;;;;;;;5061769;28;20320;-50
2023/06/14 09:05:49;;;;;;;3.72;2.00;;;;;;;;;;5062204;28;20171;-49
2023/06/14 09:08:16;;;;;;;4.63;2.00;;;;;;;;;;5059039;28;20262;-50
2023/06/14 09:10:42;;;;;;;2.67;2.40;;;;;;;;;;5062433;28;20198;-50
2023/06/14 09:13:08;;;;;;;3.17;2.30;;;;;;;;;;5058072;28;20186;-49
2023/06/14 09:15:34;;;;;;;2.63;2.22;;;;;;;;;;5062963;28;20331;-49
2023/06/14 09:18:02;;;;;;;5.32;2.30;;;;;;;;;;5066762;28;20277;-50
2023/06/14 09:20:30;;;;;;;2.33;2.10;;;;;;;;;;5067543;28;20438;-49
2023/06/14 09:22:55;;;;;;;4.45;2.13;;;;;;;;;;5057857;28;20483;-49
2023/06/14 09:25:22;;;;;;;5.22;2.28;;;;;;;;;;5061745;28;20262;-50
2023/06/14 09:27:48;;;;;;;5.50;2.38;;;;;;;;;;5052136;28;20179;-49
2023/06/14 09:30:14;;;;;;;3.53;2.30;;;;;;;;;;5061260;28;20182;-50
2023/06/14 09:32:40;;;;;;;2.20;2.00;;;;;;;;;;5066802;28;20223;-49
2023/06/14 09:35:07;;;;;;;3.30;2.35;;;;;;;;;;5064337;28;20584;-50
2023/06/14 09:37:33;;;;;;;5.00;2.40;;;;;;;;;;5062030;28;20193;-49
2023/06/14 09:39:59;;;;;;;2.28;2.08;;;;;;;;;;5063286;28;20631;-50
2023/06/14 09:42:29;;;;;;;4.05;2.65;;;;;;;;;;5053880;28;20270;-49
2023/06/14 09:44:56;;;;;;;4.55;2.60;;;;;;;;;;5058240;28;20171;-49
2023/06/14 09:47:23;;;;;;;7.57;3.38;;;;;;;;;;5065622;28;20238;-50
2023/06/14 09:49:49;;;;;;;2.53;2.33;;;;;;;;;;5062909;28;20175;-49
2023/06/14 09:52:17;;;;;;;2.92;2.03;;;;;;;;;;5063977;28;20192;-49
2023/06/14 09:54:43;;;;;;;3.40;2.13;;;;;;;;;;5058887;28;20448;-49
2023/06/14 09:57:11;;;;;;;4.47;2.38;;;;;;;;;;5075508;28;20797;-50
2023/06/14 09:59:41;;;;;;;2.92;2.40;;;;;;;;;;5064776;28;20178;-49
2023/06/14 10:02:09;;;;;;;3.67;2.50;;;;;;;;;;5066694;28;20201;-49
2023/06/14 10:04:36;;;;;;;3.20;2.70;;;;;;;;;;5065138;28;20505;-50
2023/06/14 10:07:02;;;;;;;2.45;2.20;;;;;;;;;;5061966;28;20217;-49
2023/06/14 10:09:28;;;;;;;3.53;2.65;;;;;;;;;;5060948;28;20174;-49
2023/06/14 10:11:55;;;;;;;3.00;2.42;;;;;;;;;;5073244;28;20426;-50
2023/06/14 10:14:21;;;;;;;3.33;2.20;;;;;;;;;;5064786;28;20203;-50
2023/06/14 10:17:07;;;;;;;5.20;2.47;;;;;;;;;;5063772;28;20228;-49
2023/06/14 10:19:37;;;;;;;3.67;2.38;;;;;;;;;;5074741;28;20182;-50
2023/06/14 10:22:07;;;;;;;3.75;2.53;;;;;;;;;;5062690;28;20194;-49
2023/06/14 10:24:34;;;;;;;2.50;2.30;;;;;;;;;;5053779;28;20217;-49
2023/06/14 10:27:00;;;;;;;2.67;2.30;;;;;;;;;;5058322;28;20183;-49
2023/06/14 10:29:31;;;;;;;2.80;2.33;;;;;;;;;;5057890;28;20179;-50
2023/06/14 10:31:58;;;;;;;5.57;2.70;;;;;;;;;;5055026;28;20254;-50
2023/06/14 10:34:28;;;;;;;2.20;2.00;;;;;;;;;;5060590;28;20294;-50
2023/06/14 10:37:12;;;;;;;2.78;2.30;;;;;;;;;;5055001;28;20187;-49
2023/06/14 10:39:48;;;;;;;3.95;2.22;;;;;;;;;;5056030;28;20217;-50
2023/06/14 10:42:14;;;;;;;4.63;2.30;;;;;;;;;;5062072;28;20184;-49
2023/06/14 10:44:40;;;;;;;2.90;2.20;;;;;;;;;;5061690;28;20222;-50
2023/06/14 10:47:45;;;;;;;3.47;2.28;;;;;;;;;;5056733;28;20179;-50
2023/06/14 10:50:14;;;;;;;2.88;2.35;;;;;;;;;;5037573;28;20183;-50
2023/06/14 10:52:43;;;;;;;4.80;2.17;;;;;;;;;;5029892;28;20186;-50
2023/06/14 10:55:18;;;;;;;3.08;2.35;;;;;;;;;;5051329;28;20191;-49
2023/06/14 10:57:55;;;;;;;2.33;2.08;;;;;;;;;;5062298;28;20600;-50
2023/06/14 11:00:38;;;;;;;2.42;2.22;;;;;;;;;;5060042;28;20452;-49
2023/06/14 11:03:16;;;;;;;7.43;2.35;;;;;;;;;;5059762;28;20225;-49
2023/06/14 11:05:49;;;;;;;2.40;2.10;;;;;;;;;;5053515;28;20597;-49
2023/06/14 11:08:15;;;;;;;2.50;2.30;;;;;;;;;;5053597;28;20186;-49
2023/06/14 11:10:42;;;;;;;5.53;2.33;;;;;;;;;;5061446;28;20175;-49
2023/06/14 11:13:08;;;;;;;8.00;2.70;;;;;;;;;;5056715;28;20312;-49
2023/06/14 11:15:35;;;;;;;4.20;2.30;;;;;;;;;;5061881;28;20187;-50
2023/06/14 11:18:02;;;;;;;3.55;2.40;;;;;;;;;;5062630;28;20439;-49
2023/06/14 11:20:30;;;;;;;2.90;2.05;;;;;;;;;;5057067;28;20183;-49
2023/06/14 11:22:56;;;;;;;4.93;2.40;;;;;;;;;;5062955;28;20341;-49
2023/06/14 11:25:22;;;;;;;2.38;2.17;;;;;;;;;;5072706;28;20261;-49
2023/06/14 11:27:50;;;;;;;3.40;2.40;;;;;;;;;;5069821;28;20631;-49
2023/06/14 11:30:16;;;;;;;3.33;2.10;;;;;;;;;;5060790;28;20279;-49
2023/06/14 11:32:42;;;;;;;4.22;2.20;;;;;;;;;;5066715;28;20206;-49
2023/06/14 11:35:09;;;;;;;4.97;2.28;;;;;;;;;;5060276;28;20274;-49
2023/06/14 11:37:39;;;;;;;3.03;2.70;;;;;;;;;;5055543;28;20822;-49
2023/06/14 11:40:10;;;;;;;4.38;2.20;;;;;;;;;;5055378;28;20233;-49
2023/06/14 11:42:37;;;;;;;2.22;2.03;;;;;;;;;;5051695;28;20228;-48
2023/06/14 11:45:05;;;;;;;5.05;2.28;;;;;;;;;;5071143;28;20177;-49
2023/06/14 11:47:34;;;;;;;3.20;2.10;;;;;;;;;;5053387;28;20570;-49
2023/06/14 11:50:00;;;;;;;2.97;2.40;;;;;;;;;;5060910;28;20190;-49
2023/06/14 11:52:26;;;;;;;2.45;2.03;;;;;;;;;;5065424;28;20182;-49
2023/06/14 11:54:53;;;;;;;3.45;2.20;;;;;;;;;;5052996;28;20187;-49
2023/06/14 11:57:19;;;;;;;2.50;2.30;;;;;;;;;;5054082;28;20206;-49
2023/06/14 11:59:46;;;;;;;5.60;2.58;;;;;;;;;;5069648;28;20170;-50
2023/06/14 12:02:16;;;;;;;3.00;2.38;;;;;;;;;;5062105;28;20178;-48
2023/06/14 12:04:42;;;;;;;3.00;2.35;;;;;;;;;;5067756;28;20206;-49
2023/06/14 12:07:15;;;;;;;3.78;2.50;;;;;;;;;;5061291;28;20187;-49
2023/06/14 12:09:44;;;;;;;6.35;2.85;;;;;;;;;;5061762;28;20258;-49
2023/06/14 12:12:12;;;;;;;5.97;2.60;;;;;;;;;;5070077;28;20182;-49
2023/06/14 12:14:42;;;;;;;4.43;2.42;;;;;;;;;;5067187;28;20179;-49
2023/06/14 12:17:08;;;;;;;3.60;2.30;;;;;;;;;;5073524;28;20190;-49
2023/06/14 12:19:41;;;;;;;3.25;2.50;;;;;;;;;;5063773;28;20185;-49
2023/06/14 12:22:09;;;;;;;4.75;2.20;;;;;;;;;;5063956;28;20200;-49
2023/06/14 12:24:35;;;;;;;58.58;5.85;;;;;;;;;;5060921;28;20652;-49
2023/06/14 12:27:02;;;;;;;59.75;5.85;;;;;;;;;;5064188;28;20298;-49
2023/06/14 12:29:29;;;;;;;29.52;3.53;;;;;;;;;;5060895;28;20166;-49
2023/06/14 12:31:56;;;;;;;13.20;2.75;;;;;;;;;;5062993;28;20182;-49
2023/06/14 12:34:23;;;;;;;13.30;2.97;;;;;;;;;;5059124;28;20186;-48
2023/06/14 12:36:48;;;;;;;15.13;4.35;;;;;;;;;;5058607;28;20187;-50
2023/06/14 12:39:14;;;;;;;14.60;4.65;;;;;;;;;;5055601;28;20206;-50
2023/06/14 12:41:41;;;;;;;10.10;3.90;;;;;;;;;;5060677;28;20252;-49
2023/06/14 12:44:07;;;;;;;15.07;4.07;;;;;;;;;;5055974;28;20203;-50
2023/06/14 12:46:34;;;;;;;7.13;3.50;;;;;;;;;;5059698;28;20179;-49
2023/06/14 12:49:00;;;;;;;7.32;3.33;;;;;;;;;;5063385;28;20589;-50
2023/06/14 12:51:26;;;;;;;7.07;2.88;;;;;;;;;;5076641;28;20182;-49
2023/06/14 12:53:52;;;;;;;6.20;2.70;;;;;;;;;;5064701;28;20191;-49
2023/06/14 12:56:18;;;;;;;6.75;3.00;;;;;;;;;;5065391;28;20183;-49
2023/06/14 12:58:44;;;;;;;5.70;2.45;;;;;;;;;;5057033;28;20218;-51
2023/06/14 13:01:10;;;;;;;4.50;2.40;;;;;;;;;;5068761;28;20186;-50
2023/06/14 13:03:36;;;;;;;4.03;2.80;;;;;;;;;;5064054;28;20249;-49
2023/06/14 13:06:04;;;;;;;4.68;2.47;;;;;;;;;;5072566;28;20257;-49
2023/06/14 13:08:30;;;;;;;4.72;2.70;;;;;;;;;;5055175;28;20187;-49
2023/06/14 13:10:56;;;;;;;6.10;2.67;;;;;;;;;;5065431;28;20217;-49
2023/06/14 13:13:22;;;;;;;4.32;2.28;;;;;;;;;;5067086;28;20206;-49
2023/06/14 13:15:49;;;;;;;3.47;2.45;;;;;;;;;;5055989;28;20195;-49
2023/06/14 13:18:15;;;;;;;4.35;2.42;;;;;;;;;;5064068;28;20199;-49
2023/06/14 13:20:41;;;;;;;2.55;2.35;;;;;;;;;;5063905;28;20189;-49
2023/06/14 13:23:07;;;;;;;4.55;2.53;;;;;;;;;;5054390;28;20302;-50
2023/06/14 13:25:34;;;;;;;4.43;2.53;;;;;;;;;;5065831;28;20237;-49
2023/06/14 13:28:00;;;;;;;2.35;2.15;;;;;;;;;;5064053;28;20181;-49
2023/06/14 13:30:26;;;;;;;2.88;2.50;;;;;;;;;;5065899;28;20282;-49
2023/06/14 13:32:52;;;;;;;2.67;2.42;;;;;;;;;;5062280;28;20481;-49
2023/06/14 13:35:18;;;;;;;2.40;2.20;;;;;;;;;;5066414;28;20262;-49
2023/06/14 13:37:44;;;;;;;3.45;2.95;;;;;;;;;;5062097;28;20274;-49
2023/06/14 13:40:11;;;;;;;2.33;2.13;;;;;;;;;;5063457;28;20616;-49
2023/06/14 13:42:36;;;;;;;4.32;2.22;;;;;;;;;;5057761;28;20184;-49
2023/06/14 13:45:06;;;;;;;2.88;2.47;;;;;;;;;;5061867;28;20198;-49
2023/06/14 13:47:32;;;;;;;2.40;2.20;;;;;;;;;;5050253;28;20190;-49
2023/06/14 13:49:58;;;;;;;2.40;2.20;;;;;;;;;;5054742;28;20187;-49
2023/06/14 13:52:24;;;;;;;2.25;2.05;;;;;;;;;;5053135;28;20458;-49
2023/06/14 13:54:50;;;;;;;3.05;2.20;;;;;;;;;;5051705;28;20186;-49
2023/06/14 13:57:17;;;;;;;3.05;1.98;;;;;;;;;;5065231;28;20468;-49
2023/06/14 13:59:46;;;;;;;2.03;1.80;;;;;;;;;;5057360;28;20179;-49
2023/06/14 14:02:12;;;;;;;2.97;2.50;;;;;;;;;;5052183;28;20179;-49
2023/06/14 14:04:38;;;;;;;1.90;1.80;;;;;;;;;;5057402;28;20347;-49
2023/06/14 14:07:05;;;;;;;4.43;2.00;;;;;;;;;;5066958;28;20257;-49
2023/06/14 14:09:31;;;;;;;3.20;2.20;;;;;;;;;;5057466;28;20176;-49
2023/06/14 14:11:57;;;;;;;2.45;1.90;;;;;;;;;;5064507;28;20316;-49
2023/06/14 14:14:23;;;;;;;2.28;2.08;;;;;;;;;;5061648;28;20183;-49
2023/06/14 14:16:51;;;;;;;5.32;2.17;;;;;;;;;;5072265;28;20206;-49
2023/06/14 14:19:18;;;;;;;2.22;2.03;;;;;;;;;;5071058;28;20291;-49
2023/06/14 14:21:44;;;;;;;2.25;2.05;;;;;;;;;;5057260;28;20189;-49
2023/06/14 14:24:10;;;;;;;2.75;1.88;;;;;;;;;;5055990;28;20339;-49
2023/06/14 14:26:36;;;;;;;2.50;2.28;;;;;;;;;;5065060;28;20178;-49
2023/06/14 14:29:02;;;;;;;2.00;1.65;;;;;;;;;;5063282;28;20444;-49
2023/06/14 14:31:28;;;;;;;1.80;1.70;;;;;;;;;;5061508;28;20844;-49
2023/06/14 14:33:54;;;;;;;2.35;2.10;;;;;;;;;;5060301;28;20183;-49
2023/06/14 14:36:20;;;;;;;1.85;1.75;;;;;;;;;;5064236;28;20183;-49
2023/06/14 14:38:47;;;;;;;2.83;2.25;;;;;;;;;;5058429;28;20554;-49
2023/06/14 14:41:12;;;;;;;2.40;2.10;;;;;;;;;;5058134;28;20257;-49